sensor_id;sensor_type;location;lat;lon;timestamp;temperature;humidity
67899;DHT22;54699;51.796;10.956;2022-12-11T00:02:07;15.10;48.00
67899;DHT22;54699;51.796;10.956;2022-12-11T00:04:33;15.10;48.00
67899;DHT22;54699;51.796;10.956;2022-12-11T00:07:01;15.10;48.00
67899;DHT22;54699;51.796;10.956;2022-12-11T00:09:27;15.10;48.00
67899;DHT22;54699;51.796;10.956;2022-12-11T00:11:54;15.10;48.00
67899;DHT22;54699;51.796;10.956;2022-12-11T00:14:21;15.10;48.00
67899;DHT22;54699;51.796;10.956;2022-12-11T00:16:48;15.10;48.00
67899;DHT22;54699;51.796;10.956;2022-12-11T00:19:16;15.10;48.00
67899;DHT22;54699;51.796;10.956;2022-12-11T00:21:43;15.10;48.00
67899;DHT22;54699;51.796;10.956;2022-12-11T00:24:10;15.10;48.00
67899;DHT22;54699;51.796;10.956;2022-12-11T00:26:37;15.10;48.00
67899;DHT22;54699;51.796;10.956;2022-12-11T00:29:03;15.10;48.00
67899;DHT22;54699;51.796;10.956;2022-12-11T00:31:32;15.10;48.00
67899;DHT22;54699;51.796;10.956;2022-12-11T00:34:00;15.10;48.00
67899;DHT22;54699;51.796;10.956;2022-12-11T00:36:28;15.10;48.00
67899;DHT22;54699;51.796;10.956;2022-12-11T00:38:55;15.10;48.00
67899;DHT22;54699;51.796;10.956;2022-12-11T00:41:22;15.10;48.00
67899;DHT22;54699;51.796;10.956;2022-12-11T00:43:49;15.10;48.00
67899;DHT22;54699;51.796;10.956;2022-12-11T00:46:16;15.10;48.00
67899;DHT22;54699;51.796;10.956;2022-12-11T00:48:43;15.10;48.00
67899;DHT22;54699;51.796;10.956;2022-12-11T00:51:12;15.10;48.00
67899;DHT22;54699;51.796;10.956;2022-12-11T00:53:40;15.10;48.00
67899;DHT22;54699;51.796;10.956;2022-12-11T00:56:08;15.10;48.00
67899;DHT22;54699;51.796;10.956;2022-12-11T00:58:36;15.10;48.00
67899;DHT22;54699;51.796;10.956;2022-12-11T01:01:04;15.10;48.00
67899;DHT22;54699;51.796;10.956;2022-12-11T01:03:32;15.10;48.00
67899;DHT22;54699;51.796;10.956;2022-12-11T01:05:59;15.10;48.00
67899;DHT22;54699;51.796;10.956;2022-12-11T01:08:26;15.10;48.00
67899;DHT22;54699;51.796;10.956;2022-12-11T01:11:00;15.10;48.00
67899;DHT22;54699;51.796;10.956;2022-12-11T01:13:27;15.10;48.00
67899;DHT22;54699;51.796;10.956;2022-12-11T01:15:54;15.10;48.00
67899;DHT22;54699;51.796;10.956;2022-12-11T01:18:22;15.10;48.00
67899;DHT22;54699;51.796;10.956;2022-12-11T01:20:49;15.10;48.00
67899;DHT22;54699;51.796;10.956;2022-12-11T01:23:16;15.10;48.00
67899;DHT22;54699;51.796;10.956;2022-12-11T01:25:45;15.10;48.00
67899;DHT22;54699;51.796;10.956;2022-12-11T01:28:14;15.00;48.00
67899;DHT22;54699;51.796;10.956;2022-12-11T01:30:41;15.00;48.00
67899;DHT22;54699;51.796;10.956;2022-12-11T01:33:08;15.10;48.00
67899;DHT22;54699;51.796;10.956;2022-12-11T01:35:35;15.10;48.00
67899;DHT22;54699;51.796;10.956;2022-12-11T01:38:02;15.00;48.00
67899;DHT22;54699;51.796;10.956;2022-12-11T01:40:29;15.00;48.00
67899;DHT22;54699;51.796;10.956;2022-12-11T01:42:55;15.00;48.00
67899;DHT22;54699;51.796;10.956;2022-12-11T01:45:32;15.00;48.00
67899;DHT22;54699;51.796;10.956;2022-12-11T01:48:05;15.10;48.00
67899;DHT22;54699;51.796;10.956;2022-12-11T01:50:35;15.00;48.00
67899;DHT22;54699;51.796;10.956;2022-12-11T01:53:06;15.00;48.00
67899;DHT22;54699;51.796;10.956;2022-12-11T01:55:36;15.10;48.00
67899;DHT22;54699;51.796;10.956;2022-12-11T01:58:04;15.00;47.90
67899;DHT22;54699;51.796;10.956;2022-12-11T02:00:33;15.00;48.00
67899;DHT22;54699;51.796;10.956;2022-12-11T02:03:00;15.00;47.90
67899;DHT22;54699;51.796;10.956;2022-12-11T02:05:28;15.00;47.90
67899;DHT22;54699;51.796;10.956;2022-12-11T02:07:57;15.00;48.00
67899;DHT22;54699;51.796;10.956;2022-12-11T02:10:28;15.00;48.00
67899;DHT22;54699;51.796;10.956;2022-12-11T02:13:06;15.00;48.00
67899;DHT22;54699;51.796;10.956;2022-12-11T02:15:41;15.00;48.00
67899;DHT22;54699;51.796;10.956;2022-12-11T02:18:19;15.00;48.90
67899;DHT22;54699;51.796;10.956;2022-12-11T02:20:57;15.00;48.00
67899;DHT22;54699;51.796;10.956;2022-12-11T02:23:38;15.00;48.00
67899;DHT22;54699;51.796;10.956;2022-12-11T02:26:24;15.00;48.00
67899;DHT22;54699;51.796;10.956;2022-12-11T02:29:06;15.00;48.00
67899;DHT22;54699;51.796;10.956;2022-12-11T02:31:38;15.00;48.00
67899;DHT22;54699;51.796;10.956;2022-12-11T02:34:11;15.00;47.90
67899;DHT22;54699;51.796;10.956;2022-12-11T02:36:43;15.00;48.00
67899;DHT22;54699;51.796;10.956;2022-12-11T02:39:14;15.00;47.90
67899;DHT22;54699;51.796;10.956;2022-12-11T02:41:44;15.00;48.00
67899;DHT22;54699;51.796;10.956;2022-12-11T02:44:16;15.00;48.00
67899;DHT22;54699;51.796;10.956;2022-12-11T02:46:47;15.00;48.00
67899;DHT22;54699;51.796;10.956;2022-12-11T02:49:16;15.00;48.00
67899;DHT22;54699;51.796;10.956;2022-12-11T02:51:45;15.00;47.90
67899;DHT22;54699;51.796;10.956;2022-12-11T02:54:14;15.00;47.90
67899;DHT22;54699;51.796;10.956;2022-12-11T02:56:46;15.00;48.00
67899;DHT22;54699;51.796;10.956;2022-12-11T02:59:19;15.00;47.90
67899;DHT22;54699;51.796;10.956;2022-12-11T03:01:51;15.00;48.00
67899;DHT22;54699;51.796;10.956;2022-12-11T03:04:18;15.00;47.90
67899;DHT22;54699;51.796;10.956;2022-12-11T03:06:50;15.00;48.00
67899;DHT22;54699;51.796;10.956;2022-12-11T03:09:20;15.00;48.00
67899;DHT22;54699;51.796;10.956;2022-12-11T03:11:47;15.00;48.00
67899;DHT22;54699;51.796;10.956;2022-12-11T03:14:13;15.00;48.00
67899;DHT22;54699;51.796;10.956;2022-12-11T03:16:46;15.00;48.00
67899;DHT22;54699;51.796;10.956;2022-12-11T03:19:23;15.00;47.90
67899;DHT22;54699;51.796;10.956;2022-12-11T03:21:56;15.00;47.90
67899;DHT22;54699;51.796;10.956;2022-12-11T03:24:29;15.00;47.90
67899;DHT22;54699;51.796;10.956;2022-12-11T03:27:05;15.00;48.00
67899;DHT22;54699;51.796;10.956;2022-12-11T03:29:39;15.00;47.90
67899;DHT22;54699;51.796;10.956;2022-12-11T03:32:14;15.00;47.90
67899;DHT22;54699;51.796;10.956;2022-12-11T03:34:49;15.00;47.90
67899;DHT22;54699;51.796;10.956;2022-12-11T03:37:20;15.00;48.00
67899;DHT22;54699;51.796;10.956;2022-12-11T03:39:51;15.00;47.90
67899;DHT22;54699;51.796;10.956;2022-12-11T03:42:23;15.00;47.90
67899;DHT22;54699;51.796;10.956;2022-12-11T03:44:52;15.00;48.00
67899;DHT22;54699;51.796;10.956;2022-12-11T03:47:24;15.00;47.90
67899;DHT22;54699;51.796;10.956;2022-12-11T03:49:54;15.00;48.00
67899;DHT22;54699;51.796;10.956;2022-12-11T03:52:24;15.00;47.90
67899;DHT22;54699;51.796;10.956;2022-12-11T03:54:52;14.90;47.90
67899;DHT22;54699;51.796;10.956;2022-12-11T03:57:22;15.00;47.90
67899;DHT22;54699;51.796;10.956;2022-12-11T03:59:52;15.00;47.90
67899;DHT22;54699;51.796;10.956;2022-12-11T04:02:19;15.00;47.90
67899;DHT22;54699;51.796;10.956;2022-12-11T04:04:48;15.00;47.90
67899;DHT22;54699;51.796;10.956;2022-12-11T04:07:15;15.00;47.90
67899;DHT22;54699;51.796;10.956;2022-12-11T04:09:41;15.00;47.90
67899;DHT22;54699;51.796;10.956;2022-12-11T04:12:08;15.00;47.90
67899;DHT22;54699;51.796;10.956;2022-12-11T04:14:35;15.00;47.90
67899;DHT22;54699;51.796;10.956;2022-12-11T04:17:16;15.00;47.90
67899;DHT22;54699;51.796;10.956;2022-12-11T04:20:00;15.00;47.90
67899;DHT22;54699;51.796;10.956;2022-12-11T04:22:45;15.00;47.90
67899;DHT22;54699;51.796;10.956;2022-12-11T04:25:29;15.00;48.00
67899;DHT22;54699;51.796;10.956;2022-12-11T04:27:56;15.00;47.90
67899;DHT22;54699;51.796;10.956;2022-12-11T04:30:24;15.00;47.80
67899;DHT22;54699;51.796;10.956;2022-12-11T04:32:52;15.00;47.80
67899;DHT22;54699;51.796;10.956;2022-12-11T04:35:21;15.00;47.80
67899;DHT22;54699;51.796;10.956;2022-12-11T04:37:51;15.00;47.90
67899;DHT22;54699;51.796;10.956;2022-12-11T04:40:18;15.00;47.80
67899;DHT22;54699;51.796;10.956;2022-12-11T04:42:49;15.00;47.80
67899;DHT22;54699;51.796;10.956;2022-12-11T04:45:15;15.00;47.80
67899;DHT22;54699;51.796;10.956;2022-12-11T04:47:43;15.00;47.80
67899;DHT22;54699;51.796;10.956;2022-12-11T04:50:11;15.00;47.90
67899;DHT22;54699;51.796;10.956;2022-12-11T04:52:42;14.90;47.80
67899;DHT22;54699;51.796;10.956;2022-12-11T04:55:09;14.90;47.80
67899;DHT22;54699;51.796;10.956;2022-12-11T04:57:37;14.90;47.70
67899;DHT22;54699;51.796;10.956;2022-12-11T05:00:05;14.90;47.70
67899;DHT22;54699;51.796;10.956;2022-12-11T05:02:33;14.90;47.70
67899;DHT22;54699;51.796;10.956;2022-12-11T05:05:01;15.00;47.80
67899;DHT22;54699;51.796;10.956;2022-12-11T05:07:30;15.00;47.80
67899;DHT22;54699;51.796;10.956;2022-12-11T05:09:58;15.00;47.70
67899;DHT22;54699;51.796;10.956;2022-12-11T05:12:25;15.00;47.70
67899;DHT22;54699;51.796;10.956;2022-12-11T05:14:52;14.90;47.60
67899;DHT22;54699;51.796;10.956;2022-12-11T05:17:19;14.90;47.70
67899;DHT22;54699;51.796;10.956;2022-12-11T05:19:47;15.00;47.70
67899;DHT22;54699;51.796;10.956;2022-12-11T05:22:14;15.00;47.70
67899;DHT22;54699;51.796;10.956;2022-12-11T05:24:41;14.90;47.60
67899;DHT22;54699;51.796;10.956;2022-12-11T05:27:09;15.00;47.70
67899;DHT22;54699;51.796;10.956;2022-12-11T05:29:36;15.00;47.70
67899;DHT22;54699;51.796;10.956;2022-12-11T05:32:03;14.90;47.60
67899;DHT22;54699;51.796;10.956;2022-12-11T05:34:30;14.90;47.60
67899;DHT22;54699;51.796;10.956;2022-12-11T05:36:57;15.00;47.70
67899;DHT22;54699;51.796;10.956;2022-12-11T05:39:24;15.00;47.60
67899;DHT22;54699;51.796;10.956;2022-12-11T05:41:51;14.90;47.60
67899;DHT22;54699;51.796;10.956;2022-12-11T05:44:19;14.90;47.60
67899;DHT22;54699;51.796;10.956;2022-12-11T05:46:46;14.90;47.60
67899;DHT22;54699;51.796;10.956;2022-12-11T05:49:14;14.90;47.50
67899;DHT22;54699;51.796;10.956;2022-12-11T05:51:41;14.90;47.50
67899;DHT22;54699;51.796;10.956;2022-12-11T05:54:08;14.90;47.50
67899;DHT22;54699;51.796;10.956;2022-12-11T05:56:35;14.90;47.60
67899;DHT22;54699;51.796;10.956;2022-12-11T05:59:03;15.00;47.60
67899;DHT22;54699;51.796;10.956;2022-12-11T06:01:33;14.90;47.50
67899;DHT22;54699;51.796;10.956;2022-12-11T06:04:02;15.00;47.50
67899;DHT22;54699;51.796;10.956;2022-12-11T06:06:30;14.90;47.50
67899;DHT22;54699;51.796;10.956;2022-12-11T06:08:57;15.00;47.50
67899;DHT22;54699;51.796;10.956;2022-12-11T06:11:27;15.00;48.00
67899;DHT22;54699;51.796;10.956;2022-12-11T06:13:55;14.90;47.40
67899;DHT22;54699;51.796;10.956;2022-12-11T06:16:22;15.00;47.50
67899;DHT22;54699;51.796;10.956;2022-12-11T06:18:51;15.00;47.50
67899;DHT22;54699;51.796;10.956;2022-12-11T06:21:18;15.00;47.40
67899;DHT22;54699;51.796;10.956;2022-12-11T06:23:48;14.90;47.40
67899;DHT22;54699;51.796;10.956;2022-12-11T06:26:18;15.00;47.50
67899;DHT22;54699;51.796;10.956;2022-12-11T06:28:46;14.90;47.40
67899;DHT22;54699;51.796;10.956;2022-12-11T06:31:13;14.90;47.40
67899;DHT22;54699;51.796;10.956;2022-12-11T06:33:41;14.90;47.40
67899;DHT22;54699;51.796;10.956;2022-12-11T06:36:10;14.90;47.40
67899;DHT22;54699;51.796;10.956;2022-12-11T06:38:38;15.00;47.40
67899;DHT22;54699;51.796;10.956;2022-12-11T06:41:06;14.90;47.50
67899;DHT22;54699;51.796;10.956;2022-12-11T06:43:34;14.90;47.50
67899;DHT22;54699;51.796;10.956;2022-12-11T06:46:02;14.90;47.30
67899;DHT22;54699;51.796;10.956;2022-12-11T06:48:30;14.90;47.30
67899;DHT22;54699;51.796;10.956;2022-12-11T06:50:57;14.90;47.40
67899;DHT22;54699;51.796;10.956;2022-12-11T06:53:25;15.00;47.50
67899;DHT22;54699;51.796;10.956;2022-12-11T06:55:52;14.90;47.30
67899;DHT22;54699;51.796;10.956;2022-12-11T06:58:19;14.90;47.40
67899;DHT22;54699;51.796;10.956;2022-12-11T07:00:45;15.00;47.30
67899;DHT22;54699;51.796;10.956;2022-12-11T07:03:12;14.90;47.30
67899;DHT22;54699;51.796;10.956;2022-12-11T07:05:39;15.00;47.30
67899;DHT22;54699;51.796;10.956;2022-12-11T07:08:06;15.00;47.40
67899;DHT22;54699;51.796;10.956;2022-12-11T07:10:34;14.90;47.30
67899;DHT22;54699;51.796;10.956;2022-12-11T07:13:01;14.90;47.30
67899;DHT22;54699;51.796;10.956;2022-12-11T07:15:31;14.90;47.30
67899;DHT22;54699;51.796;10.956;2022-12-11T07:17:57;14.90;47.30
67899;DHT22;54699;51.796;10.956;2022-12-11T07:20:24;14.90;47.30
67899;DHT22;54699;51.796;10.956;2022-12-11T07:22:52;14.90;47.30
67899;DHT22;54699;51.796;10.956;2022-12-11T07:25:19;14.90;47.30
67899;DHT22;54699;51.796;10.956;2022-12-11T07:27:47;14.90;47.20
67899;DHT22;54699;51.796;10.956;2022-12-11T07:30:14;14.90;47.20
67899;DHT22;54699;51.796;10.956;2022-12-11T07:32:43;14.90;47.30
67899;DHT22;54699;51.796;10.956;2022-12-11T07:35:10;14.90;47.30
67899;DHT22;54699;51.796;10.956;2022-12-11T07:37:38;14.90;47.30
67899;DHT22;54699;51.796;10.956;2022-12-11T07:40:06;15.00;47.20
67899;DHT22;54699;51.796;10.956;2022-12-11T07:42:34;14.90;47.20
67899;DHT22;54699;51.796;10.956;2022-12-11T07:45:02;14.90;47.20
67899;DHT22;54699;51.796;10.956;2022-12-11T07:47:29;14.90;47.20
67899;DHT22;54699;51.796;10.956;2022-12-11T07:49:56;15.00;47.30
67899;DHT22;54699;51.796;10.956;2022-12-11T07:52:23;14.90;47.20
67899;DHT22;54699;51.796;10.956;2022-12-11T07:54:50;14.90;47.20
67899;DHT22;54699;51.796;10.956;2022-12-11T07:57:17;14.90;47.10
67899;DHT22;54699;51.796;10.956;2022-12-11T07:59:45;14.90;47.20
67899;DHT22;54699;51.796;10.956;2022-12-11T08:02:13;14.90;47.20
67899;DHT22;54699;51.796;10.956;2022-12-11T08:04:40;14.90;47.10
67899;DHT22;54699;51.796;10.956;2022-12-11T08:07:06;15.00;47.20
67899;DHT22;54699;51.796;10.956;2022-12-11T08:09:33;14.90;47.10
67899;DHT22;54699;51.796;10.956;2022-12-11T08:12:00;15.00;47.20
67899;DHT22;54699;51.796;10.956;2022-12-11T08:14:27;14.90;47.10
67899;DHT22;54699;51.796;10.956;2022-12-11T08:16:54;14.90;47.20
67899;DHT22;54699;51.796;10.956;2022-12-11T08:19:23;15.00;47.20
67899;DHT22;54699;51.796;10.956;2022-12-11T08:21:50;14.90;47.10
67899;DHT22;54699;51.796;10.956;2022-12-11T08:24:17;15.00;47.20
67899;DHT22;54699;51.796;10.956;2022-12-11T08:26:45;14.90;47.10
67899;DHT22;54699;51.796;10.956;2022-12-11T08:29:13;15.00;47.20
67899;DHT22;54699;51.796;10.956;2022-12-11T08:31:40;15.00;47.20
67899;DHT22;54699;51.796;10.956;2022-12-11T08:34:07;14.90;47.20
67899;DHT22;54699;51.796;10.956;2022-12-11T08:36:39;14.90;47.10
67899;DHT22;54699;51.796;10.956;2022-12-11T08:39:06;15.00;47.20
67899;DHT22;54699;51.796;10.956;2022-12-11T08:41:34;14.90;47.10
67899;DHT22;54699;51.796;10.956;2022-12-11T08:44:01;14.90;47.10
67899;DHT22;54699;51.796;10.956;2022-12-11T08:46:28;14.90;47.10
67899;DHT22;54699;51.796;10.956;2022-12-11T08:48:57;14.90;47.10
67899;DHT22;54699;51.796;10.956;2022-12-11T08:51:25;15.00;47.10
67899;DHT22;54699;51.796;10.956;2022-12-11T08:53:54;15.00;47.10
67899;DHT22;54699;51.796;10.956;2022-12-11T08:56:22;15.00;47.10
67899;DHT22;54699;51.796;10.956;2022-12-11T08:58:50;15.00;47.20
67899;DHT22;54699;51.796;10.956;2022-12-11T09:01:17;15.00;47.20
67899;DHT22;54699;51.796;10.956;2022-12-11T09:03:46;15.00;47.20
67899;DHT22;54699;51.796;10.956;2022-12-11T09:06:14;15.00;47.20
67899;DHT22;54699;51.796;10.956;2022-12-11T09:08:44;15.00;47.20
67899;DHT22;54699;51.796;10.956;2022-12-11T09:11:14;15.00;47.20
67899;DHT22;54699;51.796;10.956;2022-12-11T09:13:42;15.00;47.20
67899;DHT22;54699;51.796;10.956;2022-12-11T09:16:12;15.00;47.20
67899;DHT22;54699;51.796;10.956;2022-12-11T09:18:40;15.00;47.20
67899;DHT22;54699;51.796;10.956;2022-12-11T09:21:08;15.00;47.20
67899;DHT22;54699;51.796;10.956;2022-12-11T09:23:37;15.00;47.20
67899;DHT22;54699;51.796;10.956;2022-12-11T09:26:05;15.00;47.20
67899;DHT22;54699;51.796;10.956;2022-12-11T09:28:37;15.00;47.20
67899;DHT22;54699;51.796;10.956;2022-12-11T09:31:06;15.00;47.20
67899;DHT22;54699;51.796;10.956;2022-12-11T09:33:34;15.00;47.20
67899;DHT22;54699;51.796;10.956;2022-12-11T09:36:01;15.00;47.20
67899;DHT22;54699;51.796;10.956;2022-12-11T09:38:30;15.00;47.10
67899;DHT22;54699;51.796;10.956;2022-12-11T09:40:58;15.00;47.20
67899;DHT22;54699;51.796;10.956;2022-12-11T09:43:30;15.00;47.20
67899;DHT22;54699;51.796;10.956;2022-12-11T09:46:04;15.00;47.20
67899;DHT22;54699;51.796;10.956;2022-12-11T09:48:36;15.00;47.30
67899;DHT22;54699;51.796;10.956;2022-12-11T09:51:09;15.00;47.20
67899;DHT22;54699;51.796;10.956;2022-12-11T09:53:44;15.00;47.20
67899;DHT22;54699;51.796;10.956;2022-12-11T09:56:14;15.00;47.20
67899;DHT22;54699;51.796;10.956;2022-12-11T09:58:47;15.00;47.30
67899;DHT22;54699;51.796;10.956;2022-12-11T10:01:27;15.00;47.30
67899;DHT22;54699;51.796;10.956;2022-12-11T10:04:13;15.00;47.30
67899;DHT22;54699;51.796;10.956;2022-12-11T10:06:57;15.00;47.20
67899;DHT22;54699;51.796;10.956;2022-12-11T10:09:32;15.10;47.30
67899;DHT22;54699;51.796;10.956;2022-12-11T10:12:08;15.10;47.30
67899;DHT22;54699;51.796;10.956;2022-12-11T10:14:47;15.10;47.40
67899;DHT22;54699;51.796;10.956;2022-12-11T10:17:27;15.00;47.30
67899;DHT22;54699;51.796;10.956;2022-12-11T10:20:00;15.10;47.30
67899;DHT22;54699;51.796;10.956;2022-12-11T10:22:33;15.10;47.40
67899;DHT22;54699;51.796;10.956;2022-12-11T10:25:02;15.10;47.40
67899;DHT22;54699;51.796;10.956;2022-12-11T10:27:32;15.10;47.40
67899;DHT22;54699;51.796;10.956;2022-12-11T10:30:03;15.10;47.40
67899;DHT22;54699;51.796;10.956;2022-12-11T10:32:42;15.10;47.40
67899;DHT22;54699;51.796;10.956;2022-12-11T10:35:17;15.10;47.40
67899;DHT22;54699;51.796;10.956;2022-12-11T10:37:51;15.10;47.40
67899;DHT22;54699;51.796;10.956;2022-12-11T10:40:23;15.10;47.40
67899;DHT22;54699;51.796;10.956;2022-12-11T10:42:51;15.10;47.30
67899;DHT22;54699;51.796;10.956;2022-12-11T10:45:19;15.10;47.30
67899;DHT22;54699;51.796;10.956;2022-12-11T10:47:47;15.10;47.40
67899;DHT22;54699;51.796;10.956;2022-12-11T10:50:21;15.10;47.40
67899;DHT22;54699;51.796;10.956;2022-12-11T10:52:50;15.10;47.40
67899;DHT22;54699;51.796;10.956;2022-12-11T10:55:19;15.10;47.40
67899;DHT22;54699;51.796;10.956;2022-12-11T10:57:53;15.10;47.40
67899;DHT22;54699;51.796;10.956;2022-12-11T11:00:27;15.10;47.40
67899;DHT22;54699;51.796;10.956;2022-12-11T11:02:58;15.10;47.50
67899;DHT22;54699;51.796;10.956;2022-12-11T11:05:28;15.10;47.50
67899;DHT22;54699;51.796;10.956;2022-12-11T11:10:49;15.10;47.40
67899;DHT22;54699;51.796;10.956;2022-12-11T11:13:19;15.10;47.50
67899;DHT22;54699;51.796;10.956;2022-12-11T11:15:46;15.10;47.60
67899;DHT22;54699;51.796;10.956;2022-12-11T11:18:18;15.10;47.50
67899;DHT22;54699;51.796;10.956;2022-12-11T11:20:50;15.10;47.50
67899;DHT22;54699;51.796;10.956;2022-12-11T11:23:17;15.20;47.60
67899;DHT22;54699;51.796;10.956;2022-12-11T11:25:49;15.20;47.60
67899;DHT22;54699;51.796;10.956;2022-12-11T11:28:18;15.20;47.60
67899;DHT22;54699;51.796;10.956;2022-12-11T11:30:58;15.10;47.60
67899;DHT22;54699;51.796;10.956;2022-12-11T11:33:30;15.20;47.60
67899;DHT22;54699;51.796;10.956;2022-12-11T11:36:00;15.20;47.60
67899;DHT22;54699;51.796;10.956;2022-12-11T11:38:30;15.20;47.70
67899;DHT22;54699;51.796;10.956;2022-12-11T11:41:03;15.10;47.60
67899;DHT22;54699;51.796;10.956;2022-12-11T11:43:39;15.20;47.60
67899;DHT22;54699;51.796;10.956;2022-12-11T11:46:11;15.20;47.70
67899;DHT22;54699;51.796;10.956;2022-12-11T11:48:44;15.20;47.70
67899;DHT22;54699;51.796;10.956;2022-12-11T11:51:26;15.20;47.70
67899;DHT22;54699;51.796;10.956;2022-12-11T11:53:57;15.20;47.70
67899;DHT22;54699;51.796;10.956;2022-12-11T11:56:28;15.20;47.70
67899;DHT22;54699;51.796;10.956;2022-12-11T11:59:00;15.20;47.70
67899;DHT22;54699;51.796;10.956;2022-12-11T12:01:32;15.20;47.60
67899;DHT22;54699;51.796;10.956;2022-12-11T12:04:02;15.20;47.70
67899;DHT22;54699;51.796;10.956;2022-12-11T12:06:39;15.20;47.80
67899;DHT22;54699;51.796;10.956;2022-12-11T12:09:18;15.20;47.80
67899;DHT22;54699;51.796;10.956;2022-12-11T12:12:07;15.20;47.80
67899;DHT22;54699;51.796;10.956;2022-12-11T12:14:46;15.20;47.70
67899;DHT22;54699;51.796;10.956;2022-12-11T12:17:23;15.20;47.80
67899;DHT22;54699;51.796;10.956;2022-12-11T12:20:01;15.20;47.70
67899;DHT22;54699;51.796;10.956;2022-12-11T12:22:42;15.20;47.80
67899;DHT22;54699;51.796;10.956;2022-12-11T12:25:20;15.20;47.70
67899;DHT22;54699;51.796;10.956;2022-12-11T12:27:52;15.20;47.70
67899;DHT22;54699;51.796;10.956;2022-12-11T12:30:29;15.20;47.70
67899;DHT22;54699;51.796;10.956;2022-12-11T12:33:06;15.20;47.80
67899;DHT22;54699;51.796;10.956;2022-12-11T12:35:48;15.20;47.80
67899;DHT22;54699;51.796;10.956;2022-12-11T12:38:22;15.20;47.80
67899;DHT22;54699;51.796;10.956;2022-12-11T12:41:00;15.20;47.80
67899;DHT22;54699;51.796;10.956;2022-12-11T12:43:45;15.20;47.70
67899;DHT22;54699;51.796;10.956;2022-12-11T12:46:20;15.20;47.80
67899;DHT22;54699;51.796;10.956;2022-12-11T12:48:58;15.20;47.80
67899;DHT22;54699;51.796;10.956;2022-12-11T12:51:28;15.20;48.70
67899;DHT22;54699;51.796;10.956;2022-12-11T12:53:56;15.30;48.00
67899;DHT22;54699;51.796;10.956;2022-12-11T12:56:28;15.20;47.80
67899;DHT22;54699;51.796;10.956;2022-12-11T12:58:57;15.30;47.90
67899;DHT22;54699;51.796;10.956;2022-12-11T13:01:24;15.20;47.70
67899;DHT22;54699;51.796;10.956;2022-12-11T13:03:53;15.20;47.80
67899;DHT22;54699;51.796;10.956;2022-12-11T13:06:31;15.30;47.80
67899;DHT22;54699;51.796;10.956;2022-12-11T13:09:09;15.20;47.80
67899;DHT22;54699;51.796;10.956;2022-12-11T13:11:40;15.20;47.80
67899;DHT22;54699;51.796;10.956;2022-12-11T13:14:20;15.30;47.90
67899;DHT22;54699;51.796;10.956;2022-12-11T13:16:52;15.30;48.00
67899;DHT22;54699;51.796;10.956;2022-12-11T13:19:31;15.30;47.90
67899;DHT22;54699;51.796;10.956;2022-12-11T13:22:03;15.20;47.80
67899;DHT22;54699;51.796;10.956;2022-12-11T13:24:46;15.20;47.90
67899;DHT22;54699;51.796;10.956;2022-12-11T13:27:21;15.30;47.90
67899;DHT22;54699;51.796;10.956;2022-12-11T13:29:49;15.20;47.80
67899;DHT22;54699;51.796;10.956;2022-12-11T13:32:21;15.30;47.80
67899;DHT22;54699;51.796;10.956;2022-12-11T13:34:50;15.30;47.90
67899;DHT22;54699;51.796;10.956;2022-12-11T13:37:22;15.30;48.00
67899;DHT22;54699;51.796;10.956;2022-12-11T13:39:52;15.30;48.00
67899;DHT22;54699;51.796;10.956;2022-12-11T13:42:20;15.30;47.90
67899;DHT22;54699;51.796;10.956;2022-12-11T13:44:52;15.30;47.90
67899;DHT22;54699;51.796;10.956;2022-12-11T13:47:19;15.30;47.90
67899;DHT22;54699;51.796;10.956;2022-12-11T13:49:47;15.30;48.90
67899;DHT22;54699;51.796;10.956;2022-12-11T13:52:20;15.30;47.90
67899;DHT22;54699;51.796;10.956;2022-12-11T13:54:51;15.30;47.90
67899;DHT22;54699;51.796;10.956;2022-12-11T13:57:20;15.30;48.00
67899;DHT22;54699;51.796;10.956;2022-12-11T13:59:53;15.30;47.90
67899;DHT22;54699;51.796;10.956;2022-12-11T14:02:21;15.30;48.00
67899;DHT22;54699;51.796;10.956;2022-12-11T14:04:52;15.30;47.90
67899;DHT22;54699;51.796;10.956;2022-12-11T14:07:23;15.30;47.90
67899;DHT22;54699;51.796;10.956;2022-12-11T14:09:54;15.30;47.80
67899;DHT22;54699;51.796;10.956;2022-12-11T14:12:26;15.30;48.00
67899;DHT22;54699;51.796;10.956;2022-12-11T14:14:55;15.30;47.90
67899;DHT22;54699;51.796;10.956;2022-12-11T14:17:27;15.30;48.00
67899;DHT22;54699;51.796;10.956;2022-12-11T14:19:56;15.30;47.90
67899;DHT22;54699;51.796;10.956;2022-12-11T14:22:25;15.30;47.90
67899;DHT22;54699;51.796;10.956;2022-12-11T14:24:55;15.30;47.90
67899;DHT22;54699;51.796;10.956;2022-12-11T14:27:24;15.30;47.90
67899;DHT22;54699;51.796;10.956;2022-12-11T14:29:52;15.30;47.90
67899;DHT22;54699;51.796;10.956;2022-12-11T14:32:20;15.30;48.00
67899;DHT22;54699;51.796;10.956;2022-12-11T14:34:55;15.30;47.90
67899;DHT22;54699;51.796;10.956;2022-12-11T14:37:27;15.30;47.90
67899;DHT22;54699;51.796;10.956;2022-12-11T14:39:57;15.30;48.10
67899;DHT22;54699;51.796;10.956;2022-12-11T14:42:26;15.30;48.00
67899;DHT22;54699;51.796;10.956;2022-12-11T14:44:59;15.30;48.00
67899;DHT22;54699;51.796;10.956;2022-12-11T14:47:32;15.30;48.10
67899;DHT22;54699;51.796;10.956;2022-12-11T14:50:04;15.30;48.00
67899;DHT22;54699;51.796;10.956;2022-12-11T14:52:37;15.20;48.00
67899;DHT22;54699;51.796;10.956;2022-12-11T14:55:11;15.20;48.00
67899;DHT22;54699;51.796;10.956;2022-12-11T14:57:42;15.20;48.00
67899;DHT22;54699;51.796;10.956;2022-12-11T15:00:22;15.20;48.10
67899;DHT22;54699;51.796;10.956;2022-12-11T15:03:01;15.20;48.00
67899;DHT22;54699;51.796;10.956;2022-12-11T15:05:29;15.20;48.10
67899;DHT22;54699;51.796;10.956;2022-12-11T15:07:57;15.20;47.90
67899;DHT22;54699;51.796;10.956;2022-12-11T15:10:32;15.20;48.00
67899;DHT22;54699;51.796;10.956;2022-12-11T15:13:02;15.20;48.10
67899;DHT22;54699;51.796;10.956;2022-12-11T15:15:30;15.20;48.00
67899;DHT22;54699;51.796;10.956;2022-12-11T15:18:03;15.20;48.10
67899;DHT22;54699;51.796;10.956;2022-12-11T15:20:37;15.20;48.10
67899;DHT22;54699;51.796;10.956;2022-12-11T15:23:05;15.20;48.00
67899;DHT22;54699;51.796;10.956;2022-12-11T15:25:34;15.20;48.10
67899;DHT22;54699;51.796;10.956;2022-12-11T15:28:01;15.20;48.00
67899;DHT22;54699;51.796;10.956;2022-12-11T15:30:31;15.20;48.10
67899;DHT22;54699;51.796;10.956;2022-12-11T15:33:00;15.10;48.00
67899;DHT22;54699;51.796;10.956;2022-12-11T15:35:29;15.20;48.10
67899;DHT22;54699;51.796;10.956;2022-12-11T15:37:56;15.10;47.90